Time;durP1;ratioP1;P1;durP2;ratioP2;P2;SDS_P1;SDS_P2;PMS_P1;PMS_P2;Temp;Humidity;BMP_temperature;BMP_pressure;BME280_temperature;BME280_humidity;BME280_pressure;Samples;Min_cycle;Max_cycle;Signal;HPM_P1;HPM_P2
2021/04/16 00:00:31;;;;;;;2.80;1.45;;;5.50;99.90;;;;;;5048416;28;20034;-71
2021/04/16 00:02:56;;;;;;;2.05;1.08;;;5.50;99.90;;;;;;5048665;28;20021;-71
2021/04/16 00:05:22;;;;;;;2.42;1.40;;;5.50;99.90;;;;;;5048089;28;20681;-73
2021/04/16 00:07:49;;;;;;;3.30;0.93;;;5.50;99.90;;;;;;5048283;28;20037;-72
2021/04/16 00:10:32;;;;;;;4.80;1.83;;;5.40;99.90;;;;;;5048101;28;20030;-71
2021/04/16 00:12:58;;;;;;;2.85;1.13;;;5.40;99.90;;;;;;5048258;28;20033;-71
2021/04/16 00:15:25;;;;;;;2.25;1.20;;;5.40;99.90;;;;;;5048085;28;20052;-70
2021/04/16 00:17:51;;;;;;;3.30;1.20;;;5.30;99.90;;;;;;5046799;28;20021;-72
2021/04/16 00:20:19;;;;;;;2.08;1.48;;;5.30;99.90;;;;;;5047727;28;20050;-72
2021/04/16 00:22:45;;;;;;;1.95;1.20;;;5.20;99.90;;;;;;5047919;28;20034;-73
2021/04/16 00:25:15;;;;;;;12.65;1.60;;;5.20;99.90;;;;;;5047847;28;20115;-71
2021/04/16 00:27:40;;;;;;;6.30;1.50;;;5.20;99.90;;;;;;5047807;28;20085;-71
2021/04/16 00:30:08;;;;;;;9.80;0.95;;;5.20;99.90;;;;;;5047703;28;20059;-73
2021/04/16 00:32:35;;;;;;;2.05;1.15;;;5.10;99.90;;;;;;5047732;28;20060;-71
2021/04/16 00:35:02;;;;;;;1.75;1.30;;;5.10;99.90;;;;;;5047962;28;20045;-72
2021/04/16 00:37:27;;;;;;;5.57;1.63;;;5.10;99.90;;;;;;5048047;28;20391;-73
2021/04/16 00:39:53;;;;;;;1.58;1.10;;;5.10;99.90;;;;;;5046243;28;20041;-72
2021/04/16 00:42:19;;;;;;;1.38;0.80;;;5.10;99.90;;;;;;5047669;28;20429;-72
2021/04/16 00:44:45;;;;;;;7.85;1.70;;;5.10;99.90;;;;;;5047379;28;20028;-72
2021/04/16 00:47:15;;;;;;;3.10;1.38;;;5.20;99.90;;;;;;5047345;28;20471;-71
2021/04/16 00:49:44;;;;;;;1.92;1.40;;;5.20;99.90;;;;;;5047495;28;20029;-72
2021/04/16 00:52:26;;;;;;;3.45;0.98;;;5.10;99.90;;;;;;5047272;28;20032;-72
2021/04/16 00:54:51;;;;;;;6.80;1.40;;;5.10;99.90;;;;;;5047295;28;20025;-74
2021/04/16 00:57:17;;;;;;;1.58;0.90;;;5.10;99.90;;;;;;5047205;28;20028;-71
2021/04/16 00:59:56;;;;;;;2.65;1.27;;;5.10;99.90;;;;;;5047140;28;20040;-71
2021/04/16 01:02:22;;;;;;;4.80;0.85;;;5.10;99.90;;;;;;5047001;28;20097;-71
2021/04/16 01:04:48;;;;;;;1.92;1.20;;;5.10;99.90;;;;;;5046342;28;20025;-72
2021/04/16 01:07:14;;;;;;;2.70;1.33;;;5.10;99.90;;;;;;5062571;28;20025;-71
2021/04/16 01:09:40;;;;;;;4.50;1.50;;;5.10;99.90;;;;;;5047181;28;20510;-73
2021/04/16 01:12:09;;;;;;;2.60;1.00;;;5.20;99.90;;;;;;5045732;28;20033;-73
2021/04/16 01:14:38;;;;;;;1.35;1.00;;;5.10;99.90;;;;;;5047135;28;20035;-72
2021/04/16 01:17:05;;;;;;;2.95;0.80;;;5.10;99.90;;;;;;5047004;28;20049;-73
2021/04/16 01:19:55;;;;;;;2.28;1.13;;;5.10;99.90;;;;;;5062027;28;20145;-74
2021/04/16 01:22:49;;;;;;;2.05;0.90;;;5.20;99.90;;;;;;5046820;28;20053;-70
2021/04/16 01:25:16;;;;;;;1.20;0.82;;;5.10;99.90;;;;;;5046535;28;20040;-73
2021/04/16 01:27:42;;;;;;;6.13;1.02;;;5.20;99.90;;;;;;5046632;28;20108;-71
2021/04/16 01:30:11;;;;;;;2.53;0.93;;;5.10;99.90;;;;;;5046807;28;20431;-73
2021/04/16 01:32:38;;;;;;;2.42;0.98;;;5.10;99.90;;;;;;5046559;28;20017;-72
2021/04/16 01:35:06;;;;;;;2.97;1.08;;;5.10;99.90;;;;;;5046569;28;20040;-75
2021/04/16 01:37:32;;;;;;;1.85;1.02;;;5.10;99.90;;;;;;5062199;28;20482;-73
2021/04/16 01:39:58;;;;;;;2.03;1.00;;;5.00;99.90;;;;;;5046814;28;20096;-72
2021/04/16 01:42:24;;;;;;;1.20;0.98;;;5.00;99.90;;;;;;5046568;28;20037;-71
2021/04/16 01:44:50;;;;;;;8.40;1.52;;;4.90;99.90;;;;;;5046525;28;20037;-73
2021/04/16 01:47:17;;;;;;;10.68;1.80;;;4.90;99.90;;;;;;5046248;28;20025;-74
2021/04/16 01:49:49;;;;;;;2.85;1.45;;;4.80;99.90;;;;;;5044882;28;20570;-73
2021/04/16 01:52:33;;;;;;;1.77;0.93;;;4.80;99.90;;;;;;5046282;28;20025;-72
2021/04/16 01:55:01;;;;;;;2.28;1.17;;;4.80;99.90;;;;;;5045134;28;20379;-72
2021/04/16 01:57:30;;;;;;;1.35;0.80;;;4.70;99.90;;;;;;5046260;28;20037;-74
2021/04/16 01:59:57;;;;;;;1.25;0.85;;;4.70;99.90;;;;;;5046324;28;20025;-70
2021/04/16 02:02:33;;;;;;;1.15;0.82;;;4.60;99.90;;;;;;5046118;28;20026;-70
2021/04/16 02:04:59;;;;;;;1.70;1.00;;;4.50;99.90;;;;;;5046239;28;20024;-71
2021/04/16 02:07:25;;;;;;;1.85;1.10;;;4.50;99.90;;;;;;5046089;28;20025;-73
2021/04/16 02:09:51;;;;;;;1.70;0.98;;;4.40;99.90;;;;;;5045868;28;20021;-73
2021/04/16 02:12:22;;;;;;;2.28;1.15;;;4.30;99.90;;;;;;5045882;28;20048;-71
2021/04/16 02:14:53;;;;;;;2.05;1.25;;;4.20;99.90;;;;;;5045954;28;20025;-72
2021/04/16 02:17:26;;;;;;;2.75;0.80;;;4.20;99.90;;;;;;5061101;28;20039;-73
2021/04/16 02:19:54;;;;;;;2.53;1.37;;;4.10;99.90;;;;;;5044169;28;20541;-72
2021/04/16 02:22:22;;;;;;;2.05;1.20;;;4.00;99.90;;;;;;5045612;28;20076;-71
2021/04/16 02:24:48;;;;;;;7.57;1.38;;;4.00;99.90;;;;;;5045585;28;20033;-71
2021/04/16 02:27:15;;;;;;;2.85;1.33;;;4.00;99.90;;;;;;5045654;28;20109;-72
2021/04/16 02:29:41;;;;;;;3.08;1.02;;;3.90;99.90;;;;;;5045489;28;20025;-72
2021/04/16 02:32:07;;;;;;;7.28;1.20;;;3.90;99.90;;;;;;5045423;28;20032;-71
2021/04/16 02:34:33;;;;;;;1.27;1.17;;;3.90;99.90;;;;;;5045715;28;20026;-73
2021/04/16 02:37:01;;;;;;;2.97;1.55;;;3.90;99.90;;;;;;5060989;28;20026;-71
2021/04/16 02:39:28;;;;;;;3.22;1.65;;;3.90;99.90;;;;;;5045421;28;20033;-71
2021/04/16 02:41:54;;;;;;;5.07;1.15;;;3.80;99.90;;;;;;5045170;28;20053;-74
2021/04/16 02:44:21;;;;;;;2.78;0.65;;;3.80;99.90;;;;;;5060549;28;20033;-72
2021/04/16 02:46:47;;;;;;;2.42;1.23;;;3.80;99.90;;;;;;5045275;28;20025;-71
2021/04/16 02:49:13;;;;;;;1.70;0.90;;;3.80;99.90;;;;;;5045186;28;20533;-72
2021/04/16 02:51:39;;;;;;;1.88;0.95;;;3.80;99.90;;;;;;5045313;28;20028;-72
2021/04/16 02:54:05;;;;;;;3.90;1.40;;;3.80;99.90;;;;;;5045054;28;20532;-72
2021/04/16 02:56:31;;;;;;;3.53;1.38;;;3.70;99.90;;;;;;5045313;28;20029;-74
2021/04/16 02:58:58;;;;;;;4.68;1.63;;;3.80;99.90;;;;;;5045371;28;20481;-73
2021/04/16 03:01:26;;;;;;;1.25;1.15;;;3.70;99.90;;;;;;5045124;28;20087;-72
2021/04/16 03:03:51;;;;;;;3.83;1.60;;;3.70;99.90;;;;;;5043725;28;20973;-70
2021/04/16 03:06:17;;;;;;;3.60;1.27;;;3.70;99.90;;;;;;5044909;28;20025;-71
2021/04/16 03:08:43;;;;;;;5.57;2.33;;;3.70;99.90;;;;;;5045021;28;20059;-72
2021/04/16 03:11:10;;;;;;;2.97;1.10;;;3.60;99.90;;;;;;5044817;28;20041;-72
2021/04/16 03:13:36;;;;;;;6.00;1.50;;;3.60;99.90;;;;;;5044992;28;20083;-71
2021/04/16 03:16:03;;;;;;;1.92;1.25;;;3.60;99.90;;;;;;5044938;28;20028;-72
2021/04/16 03:18:28;;;;;;;1.70;0.90;;;3.60;99.90;;;;;;5044872;28;20064;-71
2021/04/16 03:20:54;;;;;;;4.90;1.20;;;3.70;99.90;;;;;;5059777;28;20053;-72
2021/04/16 03:23:20;;;;;;;2.22;0.82;;;3.70;99.90;;;;;;5044563;28;20025;-71
2021/04/16 03:25:45;;;;;;;3.47;1.45;;;3.70;99.90;;;;;;5060026;28;20033;-72
2021/04/16 03:28:11;;;;;;;2.90;1.35;;;3.70;99.90;;;;;;5044191;28;20040;-72
2021/04/16 03:30:38;;;;;;;1.88;1.23;;;3.70;99.90;;;;;;5060049;28;20037;-73
2021/04/16 03:33:03;;;;;;;7.43;0.93;;;3.70;99.90;;;;;;5044791;28;20025;-71
2021/04/16 03:35:30;;;;;;;12.52;1.08;;;3.80;99.90;;;;;;5044769;28;20040;-71
2021/04/16 03:37:55;;;;;;;3.20;0.85;;;3.80;99.90;;;;;;5044748;28;20029;-74
2021/04/16 03:40:25;;;;;;;1.08;0.50;;;3.90;99.90;;;;;;5044534;28;20029;-72
2021/04/16 03:42:51;;;;;;;2.80;1.15;;;3.90;99.90;;;;;;5044615;28;20100;-74
2021/04/16 03:45:17;;;;;;;4.07;1.60;;;3.90;99.90;;;;;;5044619;28;20493;-72
2021/04/16 03:47:44;;;;;;;2.25;0.98;;;3.90;99.90;;;;;;5044603;28;20087;-72
2021/04/16 03:50:11;;;;;;;1.77;0.60;;;4.10;99.90;;;;;;5044485;28;20085;-71
2021/04/16 03:52:37;;;;;;;2.22;0.88;;;3.90;99.90;;;;;;5059844;28;20036;-73
2021/04/16 03:55:04;;;;;;;5.68;1.08;;;4.00;99.90;;;;;;5044579;28;20026;-72
2021/04/16 03:57:30;;;;;;;1.55;0.85;;;4.00;99.90;;;;;;5044678;28;20053;-71
2021/04/16 03:59:57;;;;;;;2.17;1.02;;;4.00;99.90;;;;;;5059965;28;20394;-72
2021/04/16 04:02:23;;;;;;;1.17;0.77;;;4.00;99.90;;;;;;5042986;28;20037;-72
2021/04/16 04:04:49;;;;;;;8.23;1.15;;;4.00;99.90;;;;;;5044456;28;20040;-72
2021/04/16 04:07:15;;;;;;;1.55;0.93;;;4.00;99.90;;;;;;5045366;28;20037;-72
2021/04/16 04:09:40;;;;;;;1.55;1.00;;;4.00;99.90;;;;;;5064004;28;20032;-70
2021/04/16 04:12:08;;;;;;;1.60;1.15;;;4.00;99.90;;;;;;5063859;28;20025;-74
2021/04/16 04:14:33;;;;;;;2.80;1.17;;;4.00;99.90;;;;;;5064345;28;20024;-73
2021/04/16 04:17:02;;;;;;;1.73;1.02;;;3.90;99.90;;;;;;5064066;28;20036;-73
2021/04/16 04:19:29;;;;;;;0.93;0.70;;;3.90;99.90;;;;;;5064093;28;20045;-71
2021/04/16 04:21:56;;;;;;;1.17;0.70;;;3.90;99.90;;;;;;5063901;28;20041;-72
2021/04/16 04:24:22;;;;;;;2.40;1.17;;;3.90;99.90;;;;;;5055289;28;20052;-74
2021/04/16 04:26:49;;;;;;;1.58;1.08;;;3.90;99.90;;;;;;5055413;28;20033;-72
2021/04/16 04:29:16;;;;;;;1.25;0.82;;;3.90;99.90;;;;;;5043929;28;20029;-72
2021/04/16 04:31:48;;;;;;;2.97;1.52;;;3.90;99.90;;;;;;5043928;28;20049;-73
2021/04/16 04:34:15;;;;;;;1.25;0.80;;;3.90;99.90;;;;;;5046232;28;20029;-70
2021/04/16 04:36:41;;;;;;;1.38;0.80;;;3.90;99.90;;;;;;5052164;28;20033;-73
2021/04/16 04:39:06;;;;;;;1.73;1.23;;;3.90;99.90;;;;;;5047826;28;20022;-74
2021/04/16 04:41:32;;;;;;;2.00;1.10;;;4.00;99.90;;;;;;5046261;28;20045;-75
2021/04/16 04:43:58;;;;;;;2.28;0.90;;;4.00;99.90;;;;;;5046582;28;20029;-71
2021/04/16 04:46:23;;;;;;;2.63;1.08;;;4.10;99.90;;;;;;5047461;28;20055;-73
2021/04/16 04:48:49;;;;;;;1.25;0.95;;;4.10;99.90;;;;;;5047472;28;20180;-71
2021/04/16 04:51:14;;;;;;;3.40;1.25;;;4.20;99.90;;;;;;5046112;28;20093;-72
2021/04/16 04:53:40;;;;;;;4.38;1.48;;;4.20;99.90;;;;;;5045927;28;20029;-71
2021/04/16 04:56:06;;;;;;;2.95;1.48;;;4.20;99.90;;;;;;5047460;28;20021;-72
2021/04/16 04:58:32;;;;;;;1.50;0.85;;;4.30;99.90;;;;;;5047588;28;20033;-70
2021/04/16 05:00:57;;;;;;;1.02;0.80;;;4.30;99.90;;;;;;5047386;28;20406;-71
2021/04/16 05:03:23;;;;;;;4.22;1.40;;;4.30;99.90;;;;;;5047185;28;20029;-70
2021/04/16 05:05:48;;;;;;;1.27;1.00;;;4.30;99.90;;;;;;5045873;28;20056;-70
2021/04/16 05:08:14;;;;;;;1.23;0.73;;;4.40;99.90;;;;;;5047223;28;20066;-72
2021/04/16 05:10:39;;;;;;;0.70;0.63;;;4.40;99.90;;;;;;5047249;28;20029;-74
2021/04/16 05:13:06;;;;;;;3.30;1.30;;;4.40;99.90;;;;;;5047102;28;20035;-76
2021/04/16 05:15:32;;;;;;;1.80;0.80;;;4.50;99.90;;;;;;5047135;28;20087;-77
2021/04/16 05:17:58;;;;;;;2.53;1.25;;;4.50;99.90;;;;;;5045891;28;20527;-73
2021/04/16 05:20:23;;;;;;;5.20;0.77;;;4.70;99.90;;;;;;5045297;28;20061;-73
2021/04/16 05:22:49;;;;;;;2.15;0.98;;;4.60;99.90;;;;;;5046885;28;20111;-72
2021/04/16 05:25:15;;;;;;;1.73;1.05;;;4.70;99.90;;;;;;5046857;28;20057;-75
2021/04/16 05:27:40;;;;;;;0.68;0.57;;;4.70;99.90;;;;;;5045486;28;20025;-74
2021/04/16 05:30:08;;;;;;;1.92;0.88;;;4.80;99.90;;;;;;5046433;28;20038;-74
2021/04/16 05:32:34;;;;;;;8.68;1.40;;;4.80;99.90;;;;;;5046518;28;20036;-74
2021/04/16 05:35:00;;;;;;;2.42;1.25;;;4.90;99.90;;;;;;5046937;28;20398;-76
2021/04/16 05:37:26;;;;;;;1.40;1.00;;;4.90;99.90;;;;;;5050408;28;20072;-74
2021/04/16 05:39:51;;;;;;;3.13;1.60;;;5.00;99.90;;;;;;5058072;28;20079;-74
2021/04/16 05:42:19;;;;;;;3.05;1.50;;;5.10;99.90;;;;;;5063963;28;20079;-74
2021/04/16 05:44:44;;;;;;;5.78;1.80;;;5.10;99.90;;;;;;5066409;28;20103;-73
2021/04/16 05:47:10;;;;;;;1.85;1.05;;;5.20;99.90;;;;;;5066130;28;20032;-74
2021/04/16 05:49:38;;;;;;;3.17;1.13;;;5.20;99.90;;;;;;5062512;28;20186;-76
2021/04/16 05:52:04;;;;;;;3.25;1.27;;;5.30;99.90;;;;;;5065638;28;20027;-74
2021/04/16 05:54:29;;;;;;;1.98;0.98;;;5.20;99.90;;;;;;5065938;28;20048;-72
2021/04/16 05:56:55;;;;;;;2.45;1.33;;;5.20;99.90;;;;;;5065526;28;20029;-73
2021/04/16 05:59:21;;;;;;;3.78;1.05;;;5.20;99.90;;;;;;5066106;28;20037;-74
2021/04/16 06:01:46;;;;;;;2.90;1.35;;;5.20;99.90;;;;;;5050563;28;20042;-73
2021/04/16 06:04:19;;;;;;;5.75;1.10;;;5.30;99.90;;;;;;5045882;28;20038;-73
2021/04/16 06:06:44;;;;;;;2.55;1.08;;;5.30;99.90;;;;;;5045830;28;20470;-74
2021/04/16 06:09:10;;;;;;;4.28;1.45;;;5.40;99.90;;;;;;5045960;28;20036;-76
2021/04/16 06:11:36;;;;;;;2.15;1.00;;;5.40;99.90;;;;;;5045939;28;20033;-72
2021/04/16 06:14:03;;;;;;;2.60;0.98;;;5.40;99.90;;;;;;5045845;28;20087;-73
2021/04/16 06:16:28;;;;;;;2.15;1.13;;;5.40;99.90;;;;;;5045835;28;20021;-73
2021/04/16 06:18:54;;;;;;;13.98;1.25;;;5.50;99.90;;;;;;5044267;28;20021;-73
2021/04/16 06:21:19;;;;;;;2.00;1.40;;;5.50;99.90;;;;;;5045687;28;20052;-71
2021/04/16 06:23:45;;;;;;;1.70;1.13;;;5.50;99.90;;;;;;5044030;28;20032;-73
2021/04/16 06:26:10;;;;;;;4.70;1.30;;;5.60;99.90;;;;;;5044768;28;20378;-74
2021/04/16 06:28:36;;;;;;;2.75;1.38;;;5.70;99.90;;;;;;5045466;28;20033;-73
2021/04/16 06:31:02;;;;;;;3.45;1.08;;;5.70;99.90;;;;;;5045532;28;20029;-72
2021/04/16 06:33:31;;;;;;;2.63;1.17;;;5.70;99.90;;;;;;5045766;28;20053;-73
2021/04/16 06:35:59;;;;;;;1.77;1.40;;;5.70;99.90;;;;;;5045164;28;20021;-72
2021/04/16 06:38:30;;;;;;;6.50;1.40;;;5.80;99.90;;;;;;5045675;28;20041;-72
2021/04/16 06:40:57;;;;;;;2.25;1.40;;;5.90;99.90;;;;;;5045372;28;20041;-72
2021/04/16 06:43:25;;;;;;;8.75;1.00;;;6.00;99.90;;;;;;5044153;28;20124;-72
2021/04/16 06:45:59;;;;;;;2.53;1.20;;;6.10;99.90;;;;;;5044292;28;20033;-73
2021/04/16 06:48:24;;;;;;;3.10;1.63;;;6.20;99.90;;;;;;5045548;28;20121;-72
2021/04/16 06:50:52;;;;;;;2.08;1.27;;;6.40;99.90;;;;;;5051098;28;20029;-74
2021/04/16 06:53:44;;;;;;;1.90;1.33;;;6.50;99.90;;;;;;5065341;28;20037;-72
2021/04/16 06:56:33;;;;;;;7.22;2.17;;;6.60;99.90;;;;;;5054063;28;20493;-74
2021/04/16 06:59:19;;;;;;;5.65;1.65;;;6.70;99.90;;;;;;5055322;28;20484;-74
2021/04/16 07:02:01;;;;;;;2.60;1.45;;;6.80;99.90;;;;;;5064725;28;20057;-72
2021/04/16 07:04:50;;;;;;;2.92;1.65;;;6.90;99.90;;;;;;5063168;28;20029;-72
2021/04/16 07:07:39;;;;;;;1.67;1.00;;;7.00;99.90;;;;;;5063960;28;20092;-72
2021/04/16 07:10:17;;;;;;;2.58;1.35;;;7.10;99.90;;;;;;5064909;28;20029;-73
2021/04/16 07:12:45;;;;;;;1.85;1.17;;;7.20;99.90;;;;;;5064979;28;20033;-73
2021/04/16 07:15:16;;;;;;;1.58;1.08;;;7.30;99.90;;;;;;5064899;28;20021;-74
2021/04/16 07:17:45;;;;;;;4.43;1.38;;;7.40;99.90;;;;;;5064818;28;20025;-73
2021/04/16 07:20:12;;;;;;;2.45;1.13;;;7.50;99.90;;;;;;5064795;28;20045;-75
2021/04/16 07:22:44;;;;;;;0.75;0.60;;;7.60;99.90;;;;;;5064691;28;20056;-73
2021/04/16 07:25:42;;;;;;;2.05;1.25;;;7.70;99.90;;;;;;5064760;28;20049;-73
2021/04/16 07:28:18;;;;;;;0.95;0.77;;;7.90;99.90;;;;;;5064595;28;20119;-74
2021/04/16 07:30:49;;;;;;;1.83;1.10;;;8.10;99.90;;;;;;5064556;28;20029;-73
2021/04/16 07:33:42;;;;;;;2.95;1.05;;;8.10;99.90;;;;;;5064287;28;20084;-74
2021/04/16 07:36:29;;;;;;;6.65;1.38;;;8.20;99.90;;;;;;5064672;28;20021;-73
2021/04/16 07:39:06;;;;;;;2.28;1.13;;;8.40;99.90;;;;;;5064769;28;20075;-73
2021/04/16 07:41:43;;;;;;;5.65;1.27;;;8.50;99.90;;;;;;5064574;28;20099;-75
2021/04/16 07:44:21;;;;;;;3.63;1.40;;;8.70;99.90;;;;;;5064061;28;20055;-73
2021/04/16 07:46:50;;;;;;;5.30;1.80;;;8.80;99.90;;;;;;5064334;28;20051;-72
2021/04/16 07:49:20;;;;;;;2.40;1.42;;;8.90;99.90;;;;;;5064510;28;20025;-73
2021/04/16 07:51:48;;;;;;;2.42;0.90;;;9.10;99.90;;;;;;5064524;28;20028;-72
2021/04/16 07:54:21;;;;;;;2.83;1.20;;;9.20;99.90;;;;;;5064775;28;20029;-73
2021/04/16 07:56:48;;;;;;;3.95;1.33;;;9.30;99.90;;;;;;5064571;28;20021;-73
2021/04/16 07:59:16;;;;;;;5.07;1.17;;;9.30;99.90;;;;;;5063587;28;20080;-74
2021/04/16 08:01:47;;;;;;;1.35;0.90;;;9.40;99.90;;;;;;5063278;28;20359;-72
2021/04/16 08:04:19;;;;;;;4.25;1.23;;;9.50;99.90;;;;;;5063618;28;20102;-73
2021/04/16 08:06:49;;;;;;;2.45;1.48;;;9.50;99.90;;;;;;5062643;28;20041;-74
2021/04/16 08:09:24;;;;;;;6.88;1.05;;;9.70;99.90;;;;;;5063545;28;20033;-74
2021/04/16 08:11:49;;;;;;;;;;;9.70;99.90;;;;;;5063262;28;20025;-72
2021/04/16 08:14:24;;;;;;;2.67;1.17;;;9.80;99.90;;;;;;5065514;28;19943;-73
2021/04/16 08:16:58;;;;;;;;;;;9.90;99.90;;;;;;5068678;28;20025;-74
2021/04/16 08:19:33;;;;;;;10.57;1.50;;;10.00;99.90;;;;;;5067792;28;19917;-73
2021/04/16 08:22:16;;;;;;;;;;;10.10;99.90;;;;;;5068266;28;20048;-73
2021/04/16 08:24:50;;;;;;;3.67;1.30;;;10.20;99.90;;;;;;5058769;28;19905;-73
2021/04/16 08:27:31;;;;;;;1.92;1.02;;;10.30;99.90;;;;;;5057014;28;20037;-73
2021/04/16 08:30:09;;;;;;;2.38;1.25;;;10.40;99.90;;;;;;5067604;28;20033;-74
2021/04/16 08:32:51;;;;;;;4.13;1.73;;;10.60;99.90;;;;;;5051788;28;20037;-71
2021/04/16 08:35:21;;;;;;;3.03;1.40;;;10.90;99.90;;;;;;5047810;28;20026;-73
2021/04/16 08:37:51;;;;;;;1.63;1.17;;;11.10;99.90;;;;;;5049602;28;20022;-77
2021/04/16 08:40:27;;;;;;;3.22;1.10;;;11.10;99.90;;;;;;5051362;28;20482;-72
2021/04/16 08:42:54;;;;;;;3.15;1.48;;;11.30;99.90;;;;;;5055223;28;20025;-75
2021/04/16 08:45:24;;;;;;;2.97;1.25;;;11.30;99.90;;;;;;5066053;28;20082;-72
2021/04/16 08:48:28;;;;;;;6.25;1.60;;;11.40;99.90;;;;;;5066886;28;20029;-74
2021/04/16 08:51:01;;;;;;;1.20;0.75;;;11.60;99.90;;;;;;5063709;28;20067;-73
2021/04/16 08:53:27;;;;;;;1.67;1.10;;;11.80;99.90;;;;;;5067323;28;20032;-73
2021/04/16 08:55:53;;;;;;;8.10;1.77;;;11.90;99.90;;;;;;5057147;28;20054;-73
2021/04/16 08:58:30;;;;;;;2.90;1.30;;;12.10;99.90;;;;;;5055985;28;20029;-73
2021/04/16 09:01:01;;;;;;;3.25;0.93;;;12.20;99.90;;;;;;5050037;28;20053;-73
2021/04/16 09:03:47;;;;;;;4.45;1.38;;;12.30;99.90;;;;;;5047082;28;20499;-74
2021/04/16 09:06:31;;;;;;;2.88;1.15;;;12.50;99.90;;;;;;5046957;28;20028;-73
2021/04/16 09:09:04;;;;;;;1.70;1.23;;;12.50;99.90;;;;;;5046702;28;20045;-75
2021/04/16 09:11:42;;;;;;;3.42;1.63;;;12.60;99.90;;;;;;5049349;28;20053;-74
2021/04/16 09:14:10;;;;;;;2.72;1.15;;;12.60;99.90;;;;;;5062245;28;20429;-74
2021/04/16 09:16:53;;;;;;;1.50;0.82;;;12.80;99.90;;;;;;5047026;28;20052;-74
2021/04/16 09:19:24;;;;;;;3.17;1.55;;;12.80;99.90;;;;;;5046642;28;20041;-71
2021/04/16 09:22:02;;;;;;;1.73;1.20;;;13.00;99.90;;;;;;5045542;28;20033;-74
2021/04/16 09:25:00;;;;;;;4.60;1.38;;;13.30;99.90;;;;;;5045694;28;20040;-73
2021/04/16 09:27:25;;;;;;;1.90;1.17;;;13.50;99.90;;;;;;5046196;28;20045;-74
2021/04/16 09:30:14;;;;;;;1.65;1.15;;;13.60;99.90;;;;;;5046831;28;20021;-73
2021/04/16 09:33:11;;;;;;;0.88;0.68;;;13.80;99.90;;;;;;5046656;28;20025;-72
2021/04/16 09:35:37;;;;;;;3.33;1.23;;;14.00;99.90;;;;;;5045568;28;20029;-73
2021/04/16 09:38:24;;;;;;;1.55;0.85;;;14.20;99.90;;;;;;5046923;28;20093;-73
2021/04/16 09:41:12;;;;;;;2.03;0.98;;;14.30;99.90;;;;;;5046526;28;20041;-73
2021/04/16 09:43:40;;;;;;;1.50;0.90;;;14.30;99.90;;;;;;5046581;28;20022;-71
2021/04/16 09:46:26;;;;;;;5.93;1.23;;;14.40;99.90;;;;;;5046679;28;20025;-72
2021/04/16 09:48:53;;;;;;;1.83;1.10;;;14.50;99.90;;;;;;5045585;28;20025;-72
2021/04/16 09:51:33;;;;;;;4.20;1.40;;;14.50;99.90;;;;;;5045435;28;20037;-73
2021/04/16 09:54:08;;;;;;;1.98;1.30;;;14.50;99.90;;;;;;5046215;28;20029;-73
2021/04/16 09:56:39;;;;;;;1.60;1.17;;;14.40;99.90;;;;;;5046276;28;20029;-76
2021/04/16 09:59:08;;;;;;;3.17;1.55;;;14.40;99.90;;;;;;5046135;28;20025;-74
2021/04/16 10:01:54;;;;;;;3.88;1.77;;;14.50;99.90;;;;;;5051094;28;20433;-74
2021/04/16 10:04:58;;;;;;;1.40;0.77;;;14.50;99.90;;;;;;5064150;28;20025;-74
2021/04/16 10:07:52;;;;;;;2.55;0.93;;;14.70;99.90;;;;;;5064892;28;20060;-73
2021/04/16 10:10:30;;;;;;;5.87;1.60;;;14.80;99.90;;;;;;5066224;28;20040;-75
2021/04/16 10:13:25;;;;;;;5.57;1.92;;;14.80;99.90;;;;;;5064693;28;20279;-75
2021/04/16 10:15:55;;;;;;;5.85;1.52;;;14.80;99.90;;;;;;5065333;28;20037;-73
2021/04/16 10:18:47;;;;;;;1.35;1.00;;;15.00;99.90;;;;;;5064292;28;20075;-72
2021/04/16 10:21:17;;;;;;;3.90;1.23;;;15.30;99.90;;;;;;5065213;28;20140;-73
2021/04/16 10:23:42;;;;;;;5.72;1.27;;;15.50;99.90;;;;;;5065450;28;20045;-74
2021/04/16 10:52:52;;;;;;;0.93;0.73;;;16.30;99.90;;;;;;5057876;28;20595;-74
2021/04/16 12:38:30;;;;;;;1.52;0.70;;;19.50;67.60;;;;;;5060270;28;19963;-73
2021/04/16 12:40:56;;;;;;;1.27;0.70;;;19.60;68.20;;;;;;5050823;28;20038;-73
2021/04/16 12:43:23;;;;;;;1.45;0.80;;;19.70;66.90;;;;;;5057218;28;20569;-74
2021/04/16 12:45:55;;;;;;;1.15;0.50;;;19.80;69.70;;;;;;5066913;28;20033;-73
2021/04/16 12:48:22;;;;;;;3.33;1.27;;;20.10;74.10;;;;;;5067004;28;20112;-73
2021/04/16 12:50:47;;;;;;;0.45;0.43;;;20.40;66.10;;;;;;5067069;28;20029;-72
2021/04/16 12:53:13;;;;;;;1.95;0.90;;;20.20;67.00;;;;;;5066820;28;20025;-73
2021/04/16 12:55:39;;;;;;;1.83;0.77;;;20.10;67.30;;;;;;5065515;28;20036;-73
2021/04/16 12:58:07;;;;;;;0.88;0.75;;;20.30;67.50;;;;;;5066848;28;20039;-73
2021/04/16 13:00:43;;;;;;;0.73;0.68;;;20.20;66.10;;;;;;5064228;28;20055;-75
2021/04/16 13:03:19;;;;;;;1.30;0.55;;;20.10;69.00;;;;;;5066636;28;20021;-76
2021/04/16 13:05:48;;;;;;;1.25;0.60;;;20.20;65.70;;;;;;5066789;28;20035;-73
2021/04/16 13:08:14;;;;;;;0.88;0.65;;;20.10;69.20;;;;;;5065520;28;20024;-76
2021/04/16 13:10:40;;;;;;;6.10;1.00;;;20.30;66.70;;;;;;5064810;28;20029;-75
2021/04/16 13:13:06;;;;;;;1.48;0.85;;;20.10;63.60;;;;;;5066193;28;20047;-72
2021/04/16 13:15:32;;;;;;;1.30;0.70;;;19.90;65.60;;;;;;5066535;28;20104;-74
2021/04/16 13:18:05;;;;;;;0.50;0.40;;;19.70;63.60;;;;;;5064241;28;20067;-73
2021/04/16 13:20:31;;;;;;;1.15;0.55;;;19.60;62.40;;;;;;5066393;28;20136;-74
2021/04/16 13:22:56;;;;;;;0.73;0.60;;;19.60;63.90;;;;;;5066600;28;20048;-74
2021/04/16 13:25:26;;;;;;;1.17;0.57;;;19.90;67.30;;;;;;5066569;28;20032;-74
2021/04/16 13:27:52;;;;;;;0.82;0.43;;;20.30;65.40;;;;;;5066475;28;20050;-71
2021/04/16 13:30:24;;;;;;;1.98;0.95;;;20.40;65.40;;;;;;5066359;28;20082;-74
2021/04/16 13:32:53;;;;;;;1.77;0.63;;;20.70;64.10;;;;;;5066399;28;20025;-72
2021/04/16 13:35:29;;;;;;;1.15;0.70;;;20.70;64.90;;;;;;5066599;28;20029;-73
2021/04/16 13:37:55;;;;;;;0.70;0.50;;;20.80;63.40;;;;;;5065124;28;20060;-73
2021/04/16 13:40:21;;;;;;;0.93;0.60;;;20.80;63.50;;;;;;5066263;28;20025;-74
2021/04/16 13:42:47;;;;;;;1.63;0.63;;;21.10;62.70;;;;;;5066259;28;20037;-76
2021/04/16 13:45:13;;;;;;;1.58;0.95;;;20.90;61.80;;;;;;5064973;28;20028;-75
2021/04/16 13:47:43;;;;;;;1.45;0.50;;;20.90;60.70;;;;;;5066173;28;20021;-73
2021/04/16 13:50:11;;;;;;;0.55;0.40;;;20.80;60.80;;;;;;5065012;28;20025;-74
2021/04/16 13:52:37;;;;;;;0.93;0.65;;;21.10;64.00;;;;;;5065904;28;20062;-74
2021/04/16 13:55:04;;;;;;;2.00;1.00;;;21.30;62.20;;;;;;5064920;28;20029;-74
2021/04/16 13:57:29;;;;;;;4.90;1.00;;;21.20;62.20;;;;;;5066219;28;20036;-74
2021/04/16 13:59:55;;;;;;;1.40;0.60;;;20.90;62.30;;;;;;5066023;28;20037;-73
2021/04/16 14:02:25;;;;;;;0.75;0.43;;;20.60;61.20;;;;;;5065716;28;20041;-76
2021/04/16 14:04:51;;;;;;;0.57;0.55;;;20.40;62.90;;;;;;5066021;28;20068;-73
2021/04/16 14:07:18;;;;;;;1.17;0.77;;;20.40;63.10;;;;;;5066017;28;20025;-73
2021/04/16 14:09:44;;;;;;;1.05;0.70;;;20.50;62.30;;;;;;5065888;28;20017;-74
2021/04/16 14:12:12;;;;;;;0.70;0.52;;;20.50;61.80;;;;;;5065436;28;20060;-74
2021/04/16 14:14:38;;;;;;;3.58;0.50;;;20.50;60.00;;;;;;5065785;28;20072;-74
2021/04/16 14:17:12;;;;;;;0.95;0.60;;;20.60;61.10;;;;;;5065883;28;20025;-75
2021/04/16 14:19:42;;;;;;;0.52;0.32;;;20.70;58.00;;;;;;5065615;28;20049;-74
2021/04/16 14:22:11;;;;;;;0.57;0.40;;;20.90;60.70;;;;;;5065632;28;20045;-74
2021/04/16 14:24:37;;;;;;;1.35;0.77;;;20.90;59.40;;;;;;5058928;28;20025;-73
2021/04/16 14:27:03;;;;;;;5.60;1.02;;;20.90;61.50;;;;;;5059598;28;20025;-76
2021/04/16 14:29:29;;;;;;;10.30;0.75;;;20.90;59.70;;;;;;5045606;28;20051;-75
2021/04/16 14:31:55;;;;;;;0.77;0.45;;;20.80;61.30;;;;;;5045572;28;20077;-74
2021/04/16 14:34:25;;;;;;;0.35;0.32;;;20.80;60.90;;;;;;5054361;28;20025;-76
2021/04/16 14:36:51;;;;;;;0.30;0.30;;;20.70;61.40;;;;;;5052714;28;20033;-75
2021/04/16 14:39:16;;;;;;;0.55;0.30;;;20.60;59.80;;;;;;5052795;28;20044;-72
2021/04/16 14:41:42;;;;;;;1.10;0.68;;;20.40;60.40;;;;;;5059401;28;20033;-73
2021/04/16 14:44:17;;;;;;;0.45;0.35;;;20.30;59.30;;;;;;5043645;28;20075;-73
2021/04/16 14:46:45;;;;;;;0.45;0.40;;;20.30;59.80;;;;;;5044509;28;20425;-76
2021/04/16 14:49:13;;;;;;;1.55;0.40;;;20.40;59.60;;;;;;5052230;28;20025;-77
2021/04/16 14:51:40;;;;;;;1.00;0.50;;;20.50;57.80;;;;;;5054330;28;20029;-73
2021/04/16 14:54:12;;;;;;;1.55;0.40;;;20.60;59.10;;;;;;5052353;28;20037;-73
2021/04/16 14:56:38;;;;;;;1.42;0.60;;;20.70;59.50;;;;;;5045020;28;20049;-74
2021/04/16 14:59:12;;;;;;;0.55;0.43;;;20.70;58.00;;;;;;5045264;28;20029;-73
2021/04/16 15:01:37;;;;;;;0.60;0.45;;;20.60;60.00;;;;;;5044190;28;20089;-73
2021/04/16 15:04:03;;;;;;;0.82;0.30;;;20.50;58.50;;;;;;5044656;28;20041;-74
2021/04/16 15:06:30;;;;;;;5.10;0.65;;;20.20;58.00;;;;;;5053169;28;20029;-74
2021/04/16 15:09:16;;;;;;;1.08;0.45;;;20.00;58.00;;;;;;5063588;28;20044;-73
2021/04/16 15:11:47;;;;;;;0.47;0.43;;;19.80;58.70;;;;;;5048770;28;20045;-75
2021/04/16 15:14:18;;;;;;;1.50;0.63;;;19.60;59.80;;;;;;5044836;28;20478;-73
2021/04/16 15:16:47;;;;;;;2.30;0.52;;;19.30;59.10;;;;;;5044646;28;20026;-73